createdAt,value
2023-05-14T00:00:49.054Z,485
2023-05-14T00:02:32.750Z,485.8
2023-05-14T00:04:16.447Z,483.5
2023-05-14T00:06:00.147Z,488.4
2023-05-14T00:07:43.854Z,489.5
2023-05-14T00:09:27.554Z,491.2
2023-05-14T00:11:11.252Z,493.4
2023-05-14T00:12:54.961Z,494.4
2023-05-14T00:14:38.652Z,492.4
2023-05-14T00:16:22.354Z,493.8
2023-05-14T00:18:06.064Z,494.2
2023-05-14T00:19:49.763Z,491.5
2023-05-14T00:21:33.471Z,490.4
2023-05-14T00:23:17.157Z,483.2
2023-05-14T00:25:00.866Z,479.6
2023-05-14T00:26:44.568Z,476.4
2023-05-14T00:28:28.264Z,476.3
2023-05-14T00:30:11.969Z,473.9
2023-05-14T00:31:55.676Z,474.5
2023-05-14T00:33:39.377Z,477.9
2023-05-14T00:35:23.087Z,480
2023-05-14T00:37:06.778Z,482.5
2023-05-14T00:38:50.476Z,481
2023-05-14T00:40:34.206Z,479.5
2023-05-14T00:42:17.883Z,480.7
2023-05-14T00:44:01.582Z,481.9
2023-05-14T00:45:45.282Z,479.4
2023-05-14T00:47:28.984Z,477.6
2023-05-14T00:49:12.687Z,475.8
2023-05-14T00:50:56.388Z,475.5
2023-05-14T00:52:40.083Z,475.7
2023-05-14T00:54:23.789Z,475
2023-05-14T00:56:07.493Z,475
2023-05-14T00:57:51.205Z,473.3
2023-05-14T00:59:34.888Z,479.8
2023-05-14T01:01:18.620Z,482.7
2023-05-14T01:03:02.310Z,485.2
2023-05-14T01:04:45.996Z,486.1
2023-05-14T01:06:29.698Z,485.8
2023-05-14T01:08:13.400Z,483.8
2023-05-14T01:09:57.103Z,483.6
2023-05-14T01:11:40.808Z,484.1
2023-05-14T01:13:24.495Z,486.1
2023-05-14T01:15:08.206Z,487.6
2023-05-14T01:16:51.914Z,483.5
2023-05-14T01:18:35.633Z,482.9
2023-05-14T01:20:19.316Z,483.3
2023-05-14T01:22:03.014Z,481.5
2023-05-14T01:23:46.714Z,478.6
2023-05-14T01:25:30.423Z,482
2023-05-14T01:27:14.126Z,485.9
2023-05-14T01:28:57.818Z,484.1
2023-05-14T01:30:41.531Z,482.9
2023-05-14T01:32:25.232Z,485.1
2023-05-14T01:34:08.942Z,486.1
2023-05-14T01:35:52.622Z,484
2023-05-14T01:37:36.321Z,484.3
2023-05-14T01:39:20.034Z,485
2023-05-14T01:41:03.784Z,484.9
2023-05-14T01:42:47.438Z,484.7
2023-05-14T01:44:31.128Z,482.7
2023-05-14T01:46:14.833Z,479
2023-05-14T01:47:58.548Z,481.3
2023-05-14T01:49:42.246Z,481.1
2023-05-14T01:51:25.941Z,483.3
2023-05-14T01:53:09.645Z,481.5
2023-05-14T01:54:53.332Z,483.9
2023-05-14T01:56:37.044Z,483
2023-05-14T01:58:20.746Z,480.6
2023-05-14T02:00:04.452Z,480.9
2023-05-14T02:01:48.164Z,477.9
2023-05-14T02:03:31.852Z,477.3
2023-05-14T02:05:15.548Z,474.3
2023-05-14T02:06:59.254Z,472.3
2023-05-14T02:08:42.950Z,472.3
2023-05-14T02:10:26.659Z,471.6
2023-05-14T02:12:10.354Z,471.8
2023-05-14T02:13:54.056Z,475.1
2023-05-14T02:15:37.752Z,477.1
2023-05-14T02:17:21.455Z,477.1
2023-05-14T02:19:05.164Z,476.6
2023-05-14T02:20:48.872Z,476.2
2023-05-14T02:22:32.670Z,475.3
2023-05-14T02:24:16.271Z,475.5
2023-05-14T02:25:59.972Z,473.3
2023-05-14T02:27:43.674Z,470.4
2023-05-14T02:29:27.386Z,474.3
2023-05-14T02:31:11.080Z,475.3
2023-05-14T02:32:54.779Z,474.7
2023-05-14T02:34:38.476Z,477.1
2023-05-14T02:36:22.269Z,475.9
2023-05-14T02:38:05.883Z,473.8
2023-05-14T02:39:49.579Z,473.4
2023-05-14T02:41:33.347Z,471.9
2023-05-14T02:43:16.997Z,472.8
2023-05-14T02:45:00.680Z,470.3
2023-05-14T02:46:44.389Z,470.5
2023-05-14T02:48:28.143Z,474
2023-05-14T02:51:55.494Z,477.6
2023-05-14T02:53:39.184Z,477.3
2023-05-14T02:55:22.913Z,480
2023-05-14T02:57:06.607Z,480
2023-05-14T02:58:50.293Z,481.3
2023-05-14T03:00:33.991Z,481.2
2023-05-14T03:02:17.696Z,477.8
2023-05-14T03:04:01.396Z,478.2
2023-05-14T03:05:45.099Z,480.8
2023-05-14T03:07:28.803Z,481
2023-05-14T03:09:12.512Z,480.5
2023-05-14T03:10:56.213Z,480.4
2023-05-14T03:12:39.957Z,478.4
2023-05-14T03:16:07.306Z,477.5
2023-05-14T03:17:51.013Z,478.3
2023-05-14T03:19:34.751Z,478.5
2023-05-14T03:21:18.409Z,478.2
2023-05-14T03:23:02.121Z,478.3
2023-05-14T03:24:45.819Z,474.7
2023-05-14T03:26:29.554Z,474.3
2023-05-14T03:28:13.234Z,474.6
2023-05-14T03:29:56.939Z,478.8
2023-05-14T03:31:40.624Z,478.7
2023-05-14T03:33:24.329Z,479.9
2023-05-14T03:35:08.032Z,479.6
2023-05-14T03:36:51.732Z,480.2
2023-05-14T03:38:35.424Z,479.4
2023-05-14T03:40:19.131Z,481.2
2023-05-14T03:42:02.836Z,479.1
2023-05-14T03:43:46.537Z,475.9
2023-05-14T03:45:30.247Z,474.7
2023-05-14T03:47:13.946Z,475.9
2023-05-14T03:48:57.654Z,476.4
2023-05-14T03:50:41.347Z,474
2023-05-14T03:52:25.044Z,476.4
2023-05-14T03:54:08.758Z,481.8
2023-05-14T03:55:52.461Z,478.1
2023-05-14T03:57:36.149Z,477.1
2023-05-14T03:59:19.861Z,475.6
2023-05-14T04:01:03.576Z,480.6
2023-05-14T04:02:47.274Z,484.7
2023-05-14T04:04:30.970Z,484.6
2023-05-14T04:06:14.659Z,481
2023-05-14T04:07:58.361Z,480.2
2023-05-14T04:09:42.064Z,478.7
2023-05-14T04:11:25.766Z,474.2
2023-05-14T04:13:09.472Z,475.2
2023-05-14T04:14:53.169Z,479.7
2023-05-14T04:16:36.868Z,481.6
2023-05-14T04:18:20.576Z,481
2023-05-14T04:20:04.295Z,482.3
2023-05-14T04:21:47.987Z,484.8
2023-05-14T04:23:31.687Z,487.7
2023-05-14T04:25:15.383Z,486.4
2023-05-14T04:26:59.091Z,485.1
2023-05-14T04:28:42.786Z,486.9
2023-05-14T04:30:26.493Z,486.3
2023-05-14T04:32:10.180Z,490.8
2023-05-14T04:33:53.887Z,491.2
2023-05-14T04:35:37.596Z,487.9
2023-05-14T04:37:21.294Z,485.1
2023-05-14T04:39:04.999Z,484.6
2023-05-14T04:40:48.695Z,486.1
2023-05-14T04:42:32.405Z,487.3
2023-05-14T04:44:16.102Z,487
2023-05-14T04:45:59.792Z,486.3
2023-05-14T04:47:43.504Z,486.9
2023-05-14T04:49:27.207Z,489.8
2023-05-14T04:51:10.901Z,494.2
2023-05-14T04:52:54.608Z,497.7
2023-05-14T04:54:38.319Z,497
2023-05-14T04:56:22.032Z,496.2
2023-05-14T04:58:05.732Z,493.3
2023-05-14T04:59:49.431Z,492.7
2023-05-14T05:01:33.123Z,492.5
2023-05-14T05:05:00.531Z,493.1
2023-05-14T05:06:44.217Z,488.4
2023-05-14T05:08:27.918Z,488.1
2023-05-14T05:10:11.627Z,485.8
2023-05-14T05:11:55.766Z,481.8
2023-05-14T05:13:39.016Z,481.1
2023-05-14T05:15:22.721Z,480
2023-05-14T05:17:06.434Z,480.4
2023-05-14T05:18:50.124Z,484.4
2023-05-14T05:20:33.827Z,484.8
2023-05-14T05:22:17.555Z,484.4
2023-05-14T05:24:01.227Z,485.7
2023-05-14T05:25:44.942Z,488.6
2023-05-14T05:27:28.633Z,487.7
2023-05-14T05:29:12.334Z,489.8
2023-05-14T05:30:56.038Z,490.1
2023-05-14T05:32:39.735Z,490.5
2023-05-14T05:34:23.446Z,489.4
2023-05-14T05:36:07.149Z,492.4
2023-05-14T05:37:50.846Z,495.2
2023-05-14T05:41:18.239Z,492.8
2023-05-14T05:43:01.946Z,493.7
2023-05-14T05:44:45.644Z,493.1
2023-05-14T05:46:29.352Z,494
2023-05-14T05:48:13.051Z,494.6
2023-05-14T05:49:56.748Z,492.2
2023-05-14T05:51:40.450Z,492.6
2023-05-14T05:53:24.161Z,493.2
2023-05-14T05:55:07.849Z,495.5
2023-05-14T05:56:51.558Z,496.9
2023-05-14T05:58:35.266Z,498.5
2023-05-14T06:00:19.038Z,502
2023-05-14T06:02:02.673Z,500.5
2023-05-14T06:03:46.381Z,499.8
2023-05-14T06:05:30.103Z,501.3
2023-05-14T06:07:13.785Z,500.6
2023-05-14T06:08:57.484Z,500.5
2023-05-14T06:10:41.184Z,499.9
2023-05-14T06:12:24.876Z,499.3
2023-05-14T06:14:08.585Z,497.9
2023-05-14T06:15:52.299Z,494.7
2023-05-14T06:17:35.985Z,493
2023-05-14T06:19:19.691Z,492.6
2023-05-14T06:21:03.430Z,495.5
2023-05-14T06:22:47.092Z,496.1
2023-05-14T06:24:30.801Z,495.6
2023-05-14T06:26:14.493Z,496
2023-05-14T06:27:58.238Z,496.5
2023-05-14T06:29:41.918Z,493.8
2023-05-14T06:31:25.595Z,491.8
2023-05-14T06:33:09.300Z,492.1
2023-05-14T06:34:53.015Z,493.7
2023-05-14T06:36:36.703Z,495.8
2023-05-14T06:38:20.403Z,497.3
2023-05-14T06:40:04.103Z,495.9
2023-05-14T06:41:47.799Z,493.8
2023-05-14T06:43:31.513Z,492.2
2023-05-14T06:45:15.217Z,491.3
2023-05-14T06:46:58.921Z,493
2023-05-14T06:48:42.608Z,492
2023-05-14T06:50:26.313Z,492.2
2023-05-14T06:52:10.015Z,493.5
2023-05-14T06:53:53.718Z,496.4
2023-05-14T06:55:37.417Z,496.3
2023-05-14T06:57:21.121Z,497
2023-05-14T06:59:04.821Z,497.9
2023-05-14T07:00:48.524Z,498.4
2023-05-14T07:02:32.217Z,500
2023-05-14T07:04:15.932Z,498.8
2023-05-14T07:05:59.628Z,498.5
2023-05-14T07:09:27.026Z,500.4
2023-05-14T07:11:10.743Z,503.3
2023-05-14T07:12:54.425Z,507.8
2023-05-14T07:14:38.137Z,508.7
2023-05-14T07:16:21.843Z,504.1
2023-05-14T07:18:05.533Z,500.2
2023-05-14T07:19:49.239Z,502.2
2023-05-14T07:21:32.966Z,499.8
2023-05-14T07:23:16.650Z,503.6
2023-05-14T07:25:00.374Z,504.4
2023-05-14T07:26:44.040Z,503.1
2023-05-14T07:28:27.742Z,502.9
2023-05-14T07:31:55.145Z,500.9
2023-05-14T07:33:38.849Z,503.7
2023-05-14T07:35:22.559Z,503.9
2023-05-14T07:37:06.254Z,500.5
2023-05-14T07:38:49.949Z,498.4
2023-05-14T07:40:33.649Z,495.5
2023-05-14T07:42:17.362Z,493.9
2023-05-14T07:45:44.764Z,489.4
2023-05-14T07:47:28.452Z,488.3
2023-05-14T07:49:12.159Z,486.7
2023-05-14T07:50:55.869Z,488.1
2023-05-14T07:52:39.555Z,491
2023-05-14T07:54:23.265Z,491.7
2023-05-14T07:56:06.982Z,490.3
2023-05-14T08:01:18.075Z,493.1
2023-05-14T08:03:01.782Z,494.2
2023-05-14T08:04:45.483Z,493.1
2023-05-14T08:06:29.179Z,494.9
2023-05-14T08:08:12.877Z,494.6
2023-05-14T08:09:56.574Z,495.6
2023-05-14T08:11:40.288Z,496.1
2023-05-14T08:13:23.991Z,496.9
2023-05-14T08:15:07.702Z,497
2023-05-14T08:16:51.395Z,496.1
2023-05-14T08:20:18.788Z,496
2023-05-14T08:22:02.491Z,496.6
2023-05-14T08:23:46.248Z,496.4
2023-05-14T08:25:29.970Z,496.4
2023-05-14T08:27:13.610Z,494.6
2023-05-14T08:28:57.305Z,496.7
2023-05-14T08:30:41.003Z,497.8
2023-05-14T08:34:08.401Z,494.5
2023-05-14T08:35:59.124Z,493.7
2023-05-14T08:37:35.830Z,494.6
2023-05-14T08:39:19.507Z,494.2
2023-05-14T08:41:10.261Z,492.4
2023-05-14T08:42:46.906Z,490.7
2023-05-14T08:44:37.613Z,490.6
2023-05-14T08:46:14.330Z,493.1
2023-05-14T08:47:58.036Z,493.3
2023-05-14T08:49:41.713Z,492.6
2023-05-14T08:51:25.437Z,491.3
2023-05-14T08:53:09.150Z,492.2
2023-05-14T08:54:52.817Z,492.3
2023-05-14T08:56:36.520Z,493.7
2023-05-14T08:58:20.219Z,492.4
2023-05-14T09:00:03.910Z,491
2023-05-14T09:03:31.325Z,494.9
2023-05-14T09:05:15.016Z,493
2023-05-14T09:06:58.723Z,493.1
2023-05-14T09:10:26.128Z,492.5
2023-05-14T09:12:09.841Z,492.6
2023-05-14T09:14:00.538Z,494.7
2023-05-14T09:15:37.230Z,496.5
2023-05-14T09:17:20.953Z,497.1
2023-05-14T09:19:11.634Z,498.4
2023-05-14T09:20:55.367Z,498.1
2023-05-14T09:22:32.034Z,495.5
2023-05-14T09:27:43.134Z,540.3
2023-05-14T09:29:26.866Z,773.5
2023-05-14T09:31:10.560Z,702.2
2023-05-14T09:32:54.257Z,534.4
2023-05-14T09:34:37.958Z,537
2023-05-14T09:36:28.651Z,539.4
2023-05-14T09:39:56.055Z,549.2
2023-05-14T09:41:32.773Z,550.7
2023-05-14T09:43:16.451Z,556.7
2023-05-14T09:45:14.187Z,558.6
2023-05-14T09:46:43.927Z,561.5
2023-05-14T09:48:41.566Z,560.8
2023-05-14T09:50:11.297Z,559.2
2023-05-14T09:53:45.670Z,561.5
2023-05-14T09:55:22.439Z,561.8
2023-05-14T09:57:06.069Z,562.1
2023-05-14T09:59:03.779Z,562.2
2023-05-14T10:00:33.610Z,561.6
2023-05-14T10:02:31.195Z,564
2023-05-14T10:04:07.866Z,568.5
2023-05-14T10:05:51.594Z,563.3
2023-05-14T10:07:35.292Z,556.2
2023-05-14T10:09:12.071Z,552.5
2023-05-14T10:10:55.776Z,551.6
2023-05-14T10:12:53.402Z,552
2023-05-14T10:14:23.110Z,552.5
2023-05-14T10:16:20.889Z,553.8
2023-05-14T10:17:57.556Z,553.8
2023-05-14T10:19:34.191Z,552.6
2023-05-14T10:24:52.341Z,607.6
2023-05-14T10:26:29.049Z,614.1
2023-05-14T10:28:12.698Z,570.8
2023-05-14T10:29:56.405Z,560.4
2023-05-14T10:31:47.091Z,561.8
2023-05-14T10:33:23.870Z,562.1
2023-05-14T10:35:14.499Z,563.1
2023-05-14T10:36:51.210Z,564.5
2023-05-14T10:38:34.906Z,563.9
2023-05-14T10:40:25.656Z,566
2023-05-14T10:42:02.310Z,566.1
2023-05-14T10:43:46.038Z,566.7
2023-05-14T10:45:36.706Z,563.7
2023-05-14T10:47:20.422Z,567.3
2023-05-14T10:49:04.112Z,566.5
2023-05-14T10:50:47.816Z,565.9
2023-05-14T10:52:24.588Z,567.1
2023-05-14T10:54:08.213Z,564.7
2023-05-14T10:55:51.921Z,563.5
2023-05-14T10:57:42.627Z,562.6
2023-05-14T10:59:26.323Z,564.4
2023-05-14T11:01:10.031Z,563.8
2023-05-14T11:04:30.459Z,563.1
2023-05-14T11:07:57.961Z,562.3
2023-05-14T11:09:41.534Z,560.2
2023-05-14T11:11:25.319Z,555
2023-05-14T11:13:23.082Z,556.5
2023-05-14T11:14:52.638Z,550
2023-05-14T11:18:20.067Z,546.5
2023-05-14T11:20:03.748Z,547.6
2023-05-14T11:23:31.148Z,545.1
2023-05-14T11:25:14.882Z,542.5
2023-05-14T11:27:12.568Z,540
2023-05-14T11:28:42.277Z,543
2023-05-14T11:30:39.960Z,543.2
2023-05-14T11:32:09.649Z,540.7
2023-05-14T11:34:00.357Z,539.4
2023-05-14T11:35:51.057Z,536.3
2023-05-14T11:37:20.758Z,538
2023-05-14T11:39:04.470Z,540.8
2023-05-14T11:40:55.178Z,541
2023-05-14T11:42:38.860Z,540.3
2023-05-14T11:44:15.569Z,541.1
2023-05-14T11:45:59.303Z,543
2023-05-14T11:47:42.966Z,540.6
2023-05-14T11:51:10.381Z,540.1
2023-05-14T11:53:01.068Z,539.8
2023-05-14T11:54:37.791Z,537.9
2023-05-14T11:58:19.209Z,540.2
2023-05-14T11:59:48.882Z,537.6
2023-05-14T12:01:39.585Z,535.9
2023-05-14T12:03:16.341Z,529.8
2023-05-14T12:05:00.038Z,529.7
2023-05-14T12:06:43.690Z,530
2023-05-14T12:08:27.379Z,529.2
2023-05-14T12:12:01.897Z,522.4
2023-05-14T12:13:45.504Z,520.6
2023-05-14T12:17:05.894Z,518.6
2023-05-14T12:18:56.597Z,522.8
2023-05-14T12:20:33.299Z,526.1
2023-05-14T12:22:16.992Z,524.8
2023-05-14T12:24:00.783Z,524.1
2023-05-14T12:25:44.400Z,523.2
2023-05-14T12:27:35.117Z,519.8
2023-05-14T12:32:39.203Z,520.4
2023-05-14T12:34:22.900Z,519.9
2023-05-14T12:36:06.625Z,520.6
2023-05-14T12:37:57.402Z,521.3
2023-05-14T12:39:34.036Z,521.5
2023-05-14T12:41:24.720Z,518.6
2023-05-14T12:43:01.415Z,518.2
2023-05-14T12:44:45.115Z,513.1
2023-05-14T12:46:28.818Z,511.7
2023-05-14T12:48:19.513Z,510.9
2023-05-14T12:49:56.224Z,512.6
2023-05-14T12:51:39.906Z,512.1
2023-05-14T12:53:23.621Z,512.9
2023-05-14T12:55:07.331Z,515.9
2023-05-14T12:56:51.024Z,516.8
2023-05-14T13:00:18.445Z,516.1
2023-05-14T13:02:02.128Z,515.7
2023-05-14T13:05:36.541Z,517.5
2023-05-14T13:07:13.232Z,515.4
2023-05-14T13:08:56.984Z,511.9
2023-05-14T13:10:40.682Z,509.4
2023-05-14T13:12:24.339Z,508.8
2023-05-14T13:14:08.053Z,507.8
2023-05-14T13:17:35.435Z,505.4
2023-05-14T13:21:09.837Z,505.6
2023-05-14T13:22:46.544Z,501.9
2023-05-14T13:24:30.236Z,504.6
2023-05-14T13:26:14.033Z,504.5
2023-05-14T13:27:57.691Z,506.3
2023-05-14T13:29:41.344Z,611.8
2023-05-14T13:31:32.046Z,620.5
2023-05-14T13:33:08.743Z,595.3
2023-05-14T13:34:52.453Z,570.4
2023-05-14T13:36:36.152Z,564.2
2023-05-14T13:38:19.855Z,562.6
2023-05-14T13:40:03.551Z,561
2023-05-14T13:41:47.294Z,566.4
2023-05-14T13:43:31.034Z,567.1
2023-05-14T13:45:21.671Z,568.9
2023-05-14T13:46:58.367Z,566.6
2023-05-14T13:48:42.234Z,566.7
2023-05-14T13:50:25.930Z,569.5
2023-05-14T13:53:53.325Z,571.2
2023-05-14T13:55:37.019Z,571.1
2023-05-14T14:00:48.140Z,562.8
2023-05-14T14:02:31.788Z,563.9
2023-05-14T14:04:15.476Z,564.9
2023-05-14T14:05:59.153Z,564.5
2023-05-14T14:07:42.789Z,564.9
2023-05-14T14:09:26.648Z,564.7
2023-05-14T14:14:37.600Z,558.7
2023-05-14T14:16:21.434Z,558.2
2023-05-14T14:18:05.106Z,557.7
2023-05-14T14:20:02.697Z,555.4
2023-05-14T14:21:46.567Z,553.6
2023-05-14T14:23:16.274Z,553.1
2023-05-14T14:24:59.927Z,551.7
2023-05-14T14:26:43.645Z,549.2
2023-05-14T14:28:27.355Z,544.5
2023-05-14T14:32:01.683Z,541.6
2023-05-14T14:33:38.406Z,541
2023-05-14T14:35:22.018Z,542
2023-05-14T14:37:05.737Z,540.7
2023-05-14T14:40:33.165Z,542.7
2023-05-14T14:42:16.807Z,541.5
2023-05-14T14:45:44.237Z,539.3
2023-05-14T14:47:27.943Z,540
2023-05-14T14:49:11.637Z,537.2
2023-05-14T14:52:39.067Z,532.3
2023-05-14T14:56:20.448Z,527.6
2023-05-14T14:58:04.158Z,526.2
2023-05-14T14:59:40.984Z,524.1
2023-05-14T15:01:24.695Z,523.9
2023-05-14T15:03:01.290Z,522.4
2023-05-14T15:04:44.990Z,521.5
2023-05-14T15:06:28.648Z,526.4
2023-05-14T15:08:19.351Z,526.7
2023-05-14T15:09:56.068Z,522.7
2023-05-14T15:11:39.866Z,519.3
2023-05-14T15:13:30.447Z,517.6
2023-05-14T15:15:14.155Z,518.8
2023-05-14T15:16:50.852Z,520.9
2023-05-14T15:18:41.571Z,523.1
2023-05-14T15:20:18.262Z,525.4
2023-05-14T15:22:01.967Z,527.2
2023-05-14T15:23:52.686Z,524.3
2023-05-14T15:25:36.386Z,523.8
2023-05-14T15:28:56.786Z,522
2023-05-14T15:30:40.485Z,524.1
2023-05-14T15:32:31.166Z,527.6
2023-05-14T15:34:14.877Z,526.6
2023-05-14T15:35:51.588Z,523.1
2023-05-14T15:37:42.266Z,522.5
2023-05-14T15:39:25.964Z,521.7
2023-05-14T15:41:02.681Z,517.4
2023-05-14T15:42:46.377Z,516.7
2023-05-14T15:44:30.074Z,516.7
2023-05-14T15:46:13.800Z,509.2
2023-05-14T15:47:57.473Z,492.5
2023-05-14T15:49:41.185Z,445.4
2023-05-14T15:51:24.899Z,431.8
2023-05-14T15:53:08.692Z,427.5
2023-05-14T15:54:52.279Z,421.8
2023-05-14T15:58:19.685Z,409.5
2023-05-14T16:06:58.197Z,399.5
2023-05-14T16:08:42.039Z,404.8
2023-05-14T16:10:25.600Z,410.2
2023-05-14T16:12:09.324Z,415.4
2023-05-14T16:13:52.993Z,416.2
2023-05-14T16:15:36.706Z,418
2023-05-14T16:17:20.478Z,417.9
2023-05-14T16:19:04.126Z,422.2
2023-05-14T16:20:47.825Z,425.8
2023-05-14T16:22:31.563Z,424.1
2023-05-14T16:24:15.202Z,424.8
2023-05-14T16:25:59.014Z,423.7
2023-05-14T16:27:42.637Z,426.4
2023-05-14T16:29:26.421Z,430.4
2023-05-14T16:31:10.042Z,432.6
2023-05-14T16:32:53.724Z,435.8
2023-05-14T16:34:37.455Z,436.7
2023-05-14T16:36:21.109Z,439.1
2023-05-14T16:39:48.511Z,436.7
2023-05-14T16:41:32.225Z,437.2
2023-05-14T16:43:15.917Z,438.1
2023-05-14T16:44:59.617Z,440.3
2023-05-14T16:46:43.308Z,438.8
2023-05-14T16:48:34.020Z,438
2023-05-14T16:50:10.746Z,437.6
2023-05-14T16:52:01.414Z,437.8
2023-05-14T16:53:38.110Z,439.2
2023-05-14T16:55:21.817Z,438.7
2023-05-14T16:57:12.769Z,439.3
2023-05-14T16:58:56.238Z,438.3
2023-05-14T17:00:32.919Z,440.4
2023-05-14T17:02:16.621Z,654.7
2023-05-14T17:04:00.332Z,726
2023-05-14T17:10:55.124Z,627.7
2023-05-14T17:12:38.842Z,617.7
2023-05-14T17:14:22.625Z,608.9
2023-05-14T17:16:06.234Z,608.9
2023-05-14T17:17:49.929Z,608.2
2023-05-14T17:19:33.702Z,615
2023-05-14T17:21:17.333Z,622.4
2023-05-14T17:23:01.033Z,628.8
2023-05-14T17:24:44.787Z,632
2023-05-14T17:26:28.506Z,636.2
2023-05-14T17:28:12.129Z,641.8
2023-05-14T17:29:55.842Z,655.4
2023-05-14T17:33:23.245Z,677.2
2023-05-14T17:36:50.665Z,682.7
2023-05-14T17:38:34.400Z,686
2023-05-14T17:40:18.089Z,685.4
2023-05-14T17:42:01.766Z,683.8
2023-05-14T17:43:45.483Z,679.9
2023-05-14T17:45:29.156Z,678.2
2023-05-14T17:47:19.864Z,678.3
2023-05-14T17:48:56.583Z,672.1
2023-05-14T17:52:23.973Z,676.7
2023-05-14T17:57:35.231Z,652.8
2023-05-14T17:59:18.779Z,616.1
2023-05-14T18:01:02.582Z,629.1
2023-05-14T18:02:46.184Z,630.6
2023-05-14T18:04:36.928Z,628.4
2023-05-14T18:06:13.594Z,626.2
2023-05-14T18:07:57.298Z,626.8
2023-05-14T18:09:48.006Z,624.8
2023-05-14T18:11:24.751Z,624.4
2023-05-14T18:13:15.443Z,624.3
2023-05-14T18:14:52.268Z,622.8
2023-05-14T18:16:35.827Z,619.7
2023-05-14T18:18:19.506Z,616.7
2023-05-14T18:20:03.224Z,621.4
2023-05-14T18:21:46.930Z,618.2
2023-05-14T18:23:30.640Z,614.9
2023-05-14T18:25:14.329Z,609.4
2023-05-14T18:26:58.041Z,607.8
2023-05-14T18:28:41.770Z,604.1
2023-05-14T18:30:25.426Z,601.7
2023-05-14T18:32:09.120Z,600.3
2023-05-14T18:33:52.826Z,599.6
2023-05-14T18:35:36.528Z,599.5
2023-05-14T18:37:20.239Z,599.5
2023-05-14T18:39:03.971Z,600
2023-05-14T18:40:47.644Z,600.9
2023-05-14T18:44:15.033Z,598.2
2023-05-14T18:45:58.744Z,597.2
2023-05-14T18:47:42.458Z,598.7
2023-05-14T18:49:26.233Z,598.4
2023-05-14T18:51:09.845Z,596.3
2023-05-14T18:52:53.554Z,592.3
2023-05-14T18:54:37.280Z,576.2
2023-05-14T18:56:21.014Z,587.4
2023-05-14T18:58:04.667Z,590.1
2023-05-14T18:59:48.380Z,585.7
2023-05-14T19:01:32.073Z,579
2023-05-14T19:04:59.537Z,510.4
2023-05-14T19:06:43.154Z,496.6
2023-05-14T19:08:26.915Z,494.6
2023-05-14T19:10:10.605Z,486.1
2023-05-14T19:11:54.264Z,483.5
2023-05-14T19:13:37.965Z,480
2023-05-14T19:15:22.021Z,477.9
2023-05-14T19:17:05.555Z,473.7
2023-05-14T19:18:49.064Z,472.7
2023-05-14T19:20:32.950Z,470.2
2023-05-14T19:22:16.680Z,467.3
2023-05-14T19:24:00.403Z,463.9
2023-05-14T19:25:44.074Z,458.7
2023-05-14T19:27:27.716Z,453.2
2023-05-14T19:29:11.309Z,450.8
2023-05-14T19:30:55.101Z,452
2023-05-14T19:32:38.914Z,449.8
2023-05-14T19:34:22.464Z,448.6
2023-05-14T19:36:06.240Z,447.9
2023-05-14T19:37:49.944Z,444.9
2023-05-14T19:39:33.477Z,442.2
2023-05-14T19:41:17.351Z,443.7
2023-05-14T19:43:01.080Z,445.7
2023-05-14T19:44:44.724Z,445.1
2023-05-14T19:46:28.456Z,445.2
2023-05-14T19:48:12.169Z,446.6
2023-05-14T19:49:55.701Z,451.9
2023-05-14T19:51:39.573Z,453.3
2023-05-14T19:53:23.299Z,456.9
2023-05-14T19:55:06.842Z,452.8
2023-05-14T19:56:50.639Z,451.2
2023-05-14T19:58:34.197Z,452.4
2023-05-14T20:00:18.065Z,449.7
2023-05-14T20:02:01.797Z,449.2
2023-05-14T20:03:45.305Z,450.3
2023-05-14T20:05:29.172Z,452.1
2023-05-14T20:07:12.863Z,450.7
2023-05-14T20:08:56.576Z,449.1
2023-05-14T20:10:40.276Z,450.1
2023-05-14T20:12:23.985Z,452.6
2023-05-14T20:14:07.692Z,454.7
2023-05-14T20:15:51.354Z,455.1
2023-05-14T20:17:35.093Z,455.1
2023-05-14T20:19:18.811Z,456.4
2023-05-14T20:21:02.524Z,458.2
2023-05-14T20:22:46.190Z,459.5
2023-05-14T20:24:29.730Z,462.9
2023-05-14T20:26:13.631Z,459.8
2023-05-14T20:27:57.165Z,458
2023-05-14T20:29:40.984Z,456.5
2023-05-14T20:31:24.712Z,454.9
2023-05-14T20:33:08.383Z,455.5
2023-05-14T20:34:51.940Z,454.8
2023-05-14T20:36:35.786Z,454.8
2023-05-14T20:38:19.483Z,455.3
2023-05-14T20:40:03.200Z,453.3
2023-05-14T20:41:46.745Z,450.9
2023-05-14T20:43:30.581Z,451.9
2023-05-14T20:45:14.239Z,467.4
2023-05-14T20:46:57.963Z,476.4
2023-05-14T20:48:41.720Z,479
2023-05-14T20:50:25.321Z,478.3
2023-05-14T20:52:09.091Z,482.9
2023-05-14T20:53:52.670Z,485.8
2023-05-14T20:55:36.361Z,488.2
2023-05-14T20:57:20.261Z,491.7
2023-05-14T20:59:03.857Z,491.3
2023-05-14T21:00:47.634Z,514.2
2023-05-14T21:02:31.283Z,555.6
2023-05-14T21:04:15.028Z,569.3
2023-05-14T21:05:58.700Z,561.3
2023-05-14T21:07:42.425Z,554.9
2023-05-14T21:09:26.141Z,571
2023-05-14T21:11:09.853Z,765.9
2023-05-14T21:12:53.552Z,810.5
2023-05-14T21:14:37.278Z,761.3
2023-05-14T21:16:20.871Z,688.4
2023-05-14T21:18:04.659Z,633
2023-05-14T21:19:48.381Z,617
2023-05-14T21:21:32.023Z,614.2
2023-05-14T21:23:15.768Z,611.7
2023-05-14T21:24:59.492Z,607.5
2023-05-14T21:26:43.075Z,603.3
2023-05-14T21:28:26.845Z,597.2
2023-05-14T21:30:10.286Z,597.6
2023-05-14T21:31:54.018Z,603
2023-05-14T21:33:37.690Z,603
2023-05-14T21:35:21.274Z,608.3
2023-05-14T21:37:05.054Z,610
2023-05-14T21:38:48.791Z,611.7
2023-05-14T21:40:32.436Z,611.1
2023-05-14T21:42:16.005Z,609.8
2023-05-14T21:43:59.930Z,608.9
2023-05-14T21:45:43.403Z,607.2
2023-05-14T21:47:27.104Z,605.5
2023-05-14T21:49:10.803Z,606.1
2023-05-14T21:50:54.506Z,611.2
2023-05-14T21:52:38.217Z,613
2023-05-14T21:54:21.953Z,615.3
2023-05-14T21:56:05.821Z,613.6
2023-05-14T21:57:49.306Z,612.7
2023-05-14T21:59:33.011Z,613.6
2023-05-14T22:01:16.749Z,612.4
2023-05-14T22:03:00.469Z,614.6
2023-05-14T22:04:44.143Z,616.2
2023-05-14T22:06:27.946Z,612.9
2023-05-14T22:08:11.554Z,614
2023-05-14T22:09:55.244Z,616.2
2023-05-14T22:11:38.921Z,617
2023-05-14T22:13:22.759Z,618.8
2023-05-14T22:16:50.132Z,623.3
2023-05-14T22:18:33.729Z,624.9
2023-05-14T22:20:17.582Z,625.3
2023-05-14T22:22:01.168Z,624.3
2023-05-14T22:23:44.886Z,624.6
2023-05-14T22:25:28.684Z,620.6
2023-05-14T22:27:12.220Z,624.9
2023-05-14T22:28:55.951Z,625.9
2023-05-14T22:30:39.682Z,628.3
2023-05-14T22:32:23.355Z,627.8
2023-05-14T22:34:07.086Z,625.5
2023-05-14T22:35:50.878Z,623.2
2023-05-14T22:37:34.535Z,624.6
2023-05-14T22:39:18.292Z,631.7
2023-05-14T22:41:01.847Z,649.1
2023-05-14T22:42:45.603Z,671.8
2023-05-14T22:44:29.257Z,685.1
2023-05-14T22:46:13.014Z,676.8
2023-05-14T22:47:56.655Z,667
2023-05-14T22:49:40.362Z,660.8
2023-05-14T22:51:24.062Z,659.4
2023-05-14T22:53:07.773Z,660.2
2023-05-14T22:54:51.458Z,659.1
2023-05-14T22:56:35.163Z,658.8
2023-05-14T22:58:18.929Z,661.3
2023-05-14T23:00:02.574Z,660.2
2023-05-14T23:01:46.262Z,660.8
2023-05-14T23:03:30.071Z,661.2
2023-05-14T23:05:13.794Z,661.1
2023-05-14T23:06:57.371Z,662.5
2023-05-14T23:08:41.093Z,681.3
2023-05-14T23:10:24.773Z,703.9
2023-05-14T23:13:52.218Z,720.4
2023-05-14T23:15:36.036Z,721.7
2023-05-14T23:17:19.653Z,713.4
2023-05-14T23:19:03.351Z,708.1
2023-05-14T23:20:46.989Z,708.5
2023-05-14T23:22:30.686Z,706
2023-05-14T23:24:14.391Z,708.9
2023-05-14T23:25:58.096Z,710.1
2023-05-14T23:27:41.827Z,707.8
2023-05-14T23:29:25.500Z,706.9
2023-05-14T23:31:09.213Z,703.4
2023-05-14T23:32:52.906Z,700.1
2023-05-14T23:34:36.720Z,700.4
2023-05-14T23:36:20.291Z,703.5
2023-05-14T23:38:04.016Z,703.6
2023-05-14T23:39:47.698Z,705.6
2023-05-14T23:41:31.449Z,710.4
2023-05-14T23:43:15.165Z,710
2023-05-14T23:44:58.813Z,709.8
2023-05-14T23:46:42.588Z,705.5
2023-05-14T23:48:26.258Z,706.6
2023-05-14T23:50:09.929Z,710.2
2023-05-14T23:51:53.609Z,724.4
2023-05-14T23:53:37.315Z,739.3
2023-05-14T23:55:21.193Z,747.4
2023-05-14T23:57:04.881Z,755.4
2023-05-14T23:58:48.421Z,757.2
